Airfield :
LOGIN :

Register | Disclaimer

   EN    FR    IT 

 










Legend :    VFR   Marginal VFR   IFR   Intensive IFR   Very Intensive IFR
Visi :
Ceiling :
>= 8 km
>= 3000ft
5 to 8 km
1000 to 3000 ft
1500m to 5 km
500 to 1000 ft
800 to 1500m
200 to 500 ft
< 800m
< 200 ft
Symbols :   Thunderstorms  Fog  Heavy snow  Heavy precipitations  Wind > 20 kt
SIGMETs :     Misc.  Thunderstorms  Icing  Turbulence  Mountain Waves  Volcanic Ashes







- Airport Elevation : 308 ft
- IATA code : POZ


EPPO - Poznan-Lawica

CURRENT METAR :
  • 170930Z 21007KT CAVOK 18/13 Q1022

EXPIRED METARs :
  • 170900Z 21006KT CAVOK 17/13 Q1022
  • 170830Z 21004KT CAVOK 16/12 Q1022
  • 170800Z 21005KT CAVOK 16/12 Q1022
  • 170730Z 20006KT CAVOK 15/12 Q1022
  • 170700Z 20004KT CAVOK 13/11 Q1022

TAF TAF EPPO
Valid from the 17 at 06:00 until the 18 at 06:00 UTC


170530Z 1706/1806 21006KT CAVOK
PROB30 1706/1707 4000 BR
BECMG 1721/1724 2500 BR
PROB40 1800/1806 0500 FG BKN002
No reported NOTAMs for that airfield.



MET'MAP, your aeronautical weather chart ! - Copyright ORBIFLY December 2007 - Disclaimer

ORBIFLY MET'MAP TEAM :

Programming & Development : Alexandra Zaïnal
Concept & Development : Baudouin d'Aumeries
Co-Development & Prog : Marc-Olivier Méhu
Technical & hardware support : Manuel Goepfert

Contact : metmap@orbifly.com




SOURCES & CREDITS :

   NOAA